createdAt,value
2019-02-23T00:02:07.353Z,2.921753
2019-02-23T00:07:29.984Z,3.072815
2019-02-23T00:12:53.157Z,3.082886
2019-02-23T00:18:15.873Z,3.072815
2019-02-23T00:23:39.285Z,3.123169
2019-02-23T00:29:01.983Z,3.223877
2019-02-23T00:34:26.603Z,3.13324
2019-02-23T00:39:49.251Z,3.203735
2019-02-23T00:45:12.035Z,3.526001
2019-02-23T00:50:34.718Z,3.405151
2019-02-23T00:55:57.488Z,3.415222
2019-02-23T01:01:20.481Z,3.304443
2019-02-23T01:06:43.016Z,3.485718
2019-02-23T01:12:05.701Z,3.455505
2019-02-23T01:17:28.446Z,3.526001
2019-02-23T01:22:51.291Z,3.566284
2019-02-23T01:28:14.016Z,3.616638
2019-02-23T01:33:37.238Z,3.697205
2019-02-23T01:38:59.935Z,3.797913
2019-02-23T01:44:22.627Z,3.707275
2019-02-23T01:49:45.352Z,3.858337
2019-02-23T01:55:09.048Z,3.818054
2019-02-23T02:00:31.962Z,3.737488
2019-02-23T02:05:54.745Z,3.626709
2019-02-23T02:11:17.502Z,3.485718
2019-02-23T02:16:40.470Z,3.415222
2019-02-23T02:22:03.183Z,3.405151
2019-02-23T02:27:25.883Z,3.284302
2019-02-23T02:32:49.490Z,3.314514
2019-02-23T02:38:12.212Z,3.334656
2019-02-23T02:43:35.128Z,3.163452
2019-02-23T02:48:57.964Z,3.13324
2019-02-23T02:54:20.699Z,3.052673
2019-02-23T02:59:44.403Z,3.052673
2019-02-23T03:05:07.102Z,3.01239
2019-02-23T03:10:30.396Z,2.921753
2019-02-23T03:15:53.955Z,2.810974
2019-02-23T03:21:16.590Z,2.730408
2019-02-23T03:26:39.600Z,2.659912
2019-02-23T03:32:02.390Z,2.579346
2019-02-23T03:37:25.066Z,2.448425
2019-02-23T03:42:47.722Z,2.25708
2019-02-23T03:48:10.422Z,2.216797
2019-02-23T03:53:33.275Z,2.085876
2019-02-23T03:58:56.925Z,1.954956
2019-02-23T04:04:19.570Z,2.015381
2019-02-23T04:09:42.217Z,1.864319
2019-02-23T04:15:05.032Z,1.793823
2019-02-23T04:20:29.524Z,1.773682
2019-02-23T04:25:52.204Z,1.723328
2019-02-23T04:31:14.959Z,1.461487
2019-02-23T04:36:37.679Z,1.159363
2019-02-23T04:42:00.378Z,0.957947
2019-02-23T04:47:23.063Z,0.978088
2019-02-23T04:52:45.794Z,0.897522
2019-02-23T04:58:08.507Z,1.340637
2019-02-23T05:03:31.261Z,1.471558
2019-02-23T05:08:54.017Z,1.542053
2019-02-23T05:14:16.693Z,1.491699
2019-02-23T05:19:39.459Z,1.703186
2019-02-23T05:25:02.348Z,1.531982
2019-02-23T05:30:25.025Z,1.491699
2019-02-23T05:35:48.961Z,1.542053
2019-02-23T05:41:12.638Z,1.491699
2019-02-23T05:46:36.228Z,1.390991
2019-02-23T05:51:59.557Z,1.290283
2019-02-23T05:57:23.170Z,1.209717
2019-02-23T06:02:45.811Z,0.99823
2019-02-23T06:08:08.463Z,0.837097
2019-02-23T06:13:31.153Z,0.74646
2019-02-23T06:18:53.814Z,0.736389
2019-02-23T06:24:16.904Z,0.635681
2019-02-23T06:29:39.568Z,0.665894
2019-02-23T06:35:02.310Z,0.49469
2019-02-23T06:40:25.294Z,0.454407
2019-02-23T06:45:48.699Z,0.565186
2019-02-23T06:51:20.517Z,0.61554
2019-02-23T06:56:44.424Z,0.635681
2019-02-23T07:02:07.321Z,0.776672
2019-02-23T07:07:30.135Z,1.038513
2019-02-23T07:12:53.891Z,1.12915
2019-02-23T07:18:16.731Z,1.310425
2019-02-23T07:23:39.489Z,1.421204
2019-02-23T07:29:10.992Z,1.531982
2019-02-23T07:34:33.738Z,1.672974
2019-02-23T07:39:56.471Z,1.602478
2019-02-23T07:45:19.179Z,1.713257
2019-02-23T07:50:42.518Z,1.672974
2019-02-23T07:56:06.211Z,1.864319
2019-02-23T08:01:28.913Z,2.035522
2019-02-23T08:06:51.680Z,2.216797
2019-02-23T08:12:14.495Z,2.357788
2019-02-23T08:17:37.239Z,2.528992
2019-02-23T08:23:00.062Z,2.770691
2019-02-23T08:28:22.865Z,2.992249
2019-02-23T08:33:45.588Z,3.203735
2019-02-23T08:39:08.328Z,3.526001
2019-02-23T08:44:31.231Z,3.63678
2019-02-23T08:49:53.918Z,3.777771
2019-02-23T08:55:16.734Z,3.818054
2019-02-23T09:00:39.425Z,4.130249
2019-02-23T09:06:05.594Z,4.291382
2019-02-23T09:11:28.376Z,4.573364
2019-02-23T09:16:51.172Z,4.986267
2019-02-23T09:22:14.663Z,5.288391
2019-02-23T09:27:37.319Z,5.65094
2019-02-23T09:33:00.022Z,5.852356
2019-02-23T09:38:23.535Z,5.963135
2019-02-23T09:43:46.176Z,6.083984
2019-02-23T09:49:08.910Z,6.204834
2019-02-23T09:54:31.632Z,6.396179
2019-02-23T09:59:54.377Z,6.688232
2019-02-23T10:05:17.130Z,6.728516
2019-02-23T10:10:39.789Z,6.899719
2019-02-23T10:16:02.504Z,6.889648
2019-02-23T10:21:33.988Z,6.627808
2019-02-23T10:27:05.527Z,6.859436
2019-02-23T10:32:38.059Z,6.506958
2019-02-23T10:38:01.775Z,6.627808
2019-02-23T10:43:24.470Z,6.829224
2019-02-23T10:48:47.298Z,7.242126
2019-02-23T10:54:10.355Z,7.503967
2019-02-23T10:59:33.107Z,7.604675
2019-02-23T11:04:55.742Z,7.856445
2019-02-23T11:10:19.096Z,8.017578
2019-02-23T11:15:41.761Z,8.359985
2019-02-23T11:21:05.476Z,8.652039
2019-02-23T11:26:28.310Z,8.833313
2019-02-23T11:31:51.976Z,9.034729
2019-02-23T11:37:14.800Z,9.195862
2019-02-23T11:42:37.470Z,9.266357
2019-02-23T11:48:00.231Z,9.377136
2019-02-23T11:53:22.948Z,9.518127
2019-02-23T11:58:45.737Z,9.749756
2019-02-23T12:04:08.628Z,9.93103
2019-02-23T12:09:31.324Z,9.709473
2019-02-23T12:14:54.075Z,10.021667
2019-02-23T12:20:16.702Z,10.313721
2019-02-23T12:25:39.398Z,10.223083
2019-02-23T12:31:02.708Z,10.575562
2019-02-23T12:36:25.366Z,10.565491
2019-02-23T12:41:48.044Z,11.079102
2019-02-23T12:47:10.684Z,11.572571
2019-02-23T12:52:33.391Z,11.784058
2019-02-23T12:57:56.053Z,11.854553
2019-02-23T13:03:18.925Z,11.965332
2019-02-23T13:08:42.737Z,11.844482
2019-02-23T13:14:05.400Z,12.126465
2019-02-23T13:19:28.216Z,12.408447
2019-02-23T13:24:51.625Z,12.549438
2019-02-23T13:30:14.334Z,12.116394
2019-02-23T13:35:37.090Z,11.542358
2019-02-23T13:40:59.770Z,11.300659
2019-02-23T13:46:22.510Z,11.300659
2019-02-23T13:51:45.173Z,11.169739
2019-02-23T13:57:07.852Z,11.159668
2019-02-23T14:02:30.553Z,11.048889
2019-02-23T14:07:53.380Z,10.827332
2019-02-23T14:13:16.120Z,10.696411
2019-02-23T14:18:38.800Z,10.797119
2019-02-23T14:24:01.811Z,10.857544
2019-02-23T14:29:24.454Z,11.119385
2019-02-23T14:34:47.730Z,11.391296
2019-02-23T14:40:10.443Z,11.391296
2019-02-23T14:45:33.199Z,11.592712
2019-02-23T14:50:55.946Z,11.542358
2019-02-23T14:56:18.648Z,11.330872
2019-02-23T15:01:43.305Z,11.199951
2019-02-23T15:07:04.229Z,11.028748
2019-02-23T15:12:27.069Z,10.716553
2019-02-23T15:17:50.089Z,10.565491
2019-02-23T15:23:13.835Z,10.897827
2019-02-23T15:28:37.816Z,10.625916
2019-02-23T15:33:59.256Z,10.202942
2019-02-23T15:39:23.156Z,10.253296
2019-02-23T15:44:44.691Z,9.910889
2019-02-23T15:50:12.869Z,11.109314
2019-02-23T15:55:30.064Z,12.18689
2019-02-23T16:00:52.780Z,11.018677
2019-02-23T16:06:15.902Z,9.920959
2019-02-23T16:11:38.637Z,9.316711
2019-02-23T16:17:03.147Z,8.944092
2019-02-23T16:22:25.919Z,8.893738
2019-02-23T16:27:48.731Z,8.682251
2019-02-23T16:33:11.378Z,8.178711
2019-02-23T16:38:35.156Z,7.78595
2019-02-23T16:43:58.613Z,7.443542
2019-02-23T16:49:21.379Z,6.940002
2019-02-23T16:54:44.078Z,6.647949
2019-02-23T17:00:06.830Z,6.416321
2019-02-23T17:05:29.651Z,5.932922
2019-02-23T17:10:53.400Z,5.509949
2019-02-23T17:16:16.211Z,5.288391
2019-02-23T17:21:39.078Z,5.056763
2019-02-23T17:27:01.828Z,4.684143
2019-02-23T17:32:24.605Z,4.502869
2019-02-23T17:37:48.196Z,4.321594
2019-02-23T17:43:11.000Z,4.432373
2019-02-23T17:48:33.952Z,4.543152
2019-02-23T17:53:56.638Z,4.593506
2019-02-23T17:59:19.443Z,5.137329
2019-02-23T18:04:42.134Z,5.006409
2019-02-23T18:10:04.820Z,4.724426
2019-02-23T18:15:27.644Z,4.563293
2019-02-23T18:20:50.448Z,4.593506
2019-02-23T18:26:20.783Z,4.593506
2019-02-23T18:31:36.473Z,4.653931
2019-02-23T18:36:59.538Z,4.865417
2019-02-23T18:42:22.439Z,4.956055
2019-02-23T18:47:46.150Z,4.956055
2019-02-23T18:53:08.920Z,5.016479
2019-02-23T18:58:31.857Z,4.935913
2019-02-23T19:03:54.609Z,4.77478
2019-02-23T19:09:17.532Z,4.502869
2019-02-23T19:14:40.737Z,4.502869
2019-02-23T19:20:04.031Z,4.724426
2019-02-23T19:25:26.328Z,4.754639
2019-02-23T19:30:48.947Z,4.925842
2019-02-23T19:36:11.645Z,4.794922
2019-02-23T19:41:34.442Z,4.825134
2019-02-23T19:46:57.300Z,5.197754
2019-02-23T19:52:19.971Z,5.348816
2019-02-23T19:57:42.654Z,5.509949
2019-02-23T20:03:05.502Z,5.298462
2019-02-23T20:08:28.215Z,5.1474
2019-02-23T20:13:50.870Z,5.076904
2019-02-23T20:19:13.580Z,4.855347
2019-02-23T20:24:36.231Z,4.684143
2019-02-23T20:29:58.909Z,4.64386
2019-02-23T20:35:21.924Z,4.502869
2019-02-23T20:40:45.690Z,4.200745
2019-02-23T20:46:09.800Z,3.979187
2019-02-23T20:51:32.623Z,3.918762
2019-02-23T20:57:03.845Z,4.100037
2019-02-23T21:02:19.208Z,4.079895
2019-02-23T21:07:41.928Z,4.130249
2019-02-23T21:13:04.629Z,3.959045
2019-02-23T21:18:27.277Z,4.039612
2019-02-23T21:23:50.944Z,4.210815
2019-02-23T21:29:15.211Z,4.281311
2019-02-23T21:34:38.114Z,4.110107
2019-02-23T21:40:02.695Z,4.079895
2019-02-23T21:45:25.987Z,3.999329
2019-02-23T21:50:48.692Z,3.948975
2019-02-23T21:56:11.412Z,4.281311
2019-02-23T22:01:35.271Z,4.241028
2019-02-23T22:06:58.123Z,4.160461
2019-02-23T22:12:21.443Z,4.039612
2019-02-23T22:17:44.283Z,4.110107
2019-02-23T22:23:07.121Z,4.321594
2019-02-23T22:28:29.670Z,4.130249
2019-02-23T22:33:52.373Z,4.039612
2019-02-23T22:39:15.090Z,4.039612
2019-02-23T22:44:37.786Z,4.01947
2019-02-23T22:50:00.547Z,4.130249
2019-02-23T22:55:23.314Z,4.039612
2019-02-23T23:00:46.226Z,3.838196
2019-02-23T23:06:09.056Z,3.948975
2019-02-23T23:11:32.018Z,3.898621
2019-02-23T23:16:54.686Z,3.777771
2019-02-23T23:22:17.462Z,3.707275
2019-02-23T23:27:48.898Z,3.717346
2019-02-23T23:33:03.022Z,3.51593
2019-02-23T23:38:25.796Z,3.526001
2019-02-23T23:43:48.481Z,3.374939
2019-02-23T23:49:11.127Z,3.254089
2019-02-23T23:54:33.949Z,3.082886
2019-02-23T23:59:56.683Z,2.921753
